Weather at El Dorado Substation Heliport

Public forecast

Using degrees Fahrenheit for public forecast. Weather courtesy of forecast.io.

Closest aviation weather report (METAR) to El Dorado Substation Heliport

Closest report is Henderson Executive Airport, 12.3 nm (22.8 km) NNW.

2023/01/26 20:56 (retrieved 40 minutes ago)

KHND 262056Z 04013G17KT 10SM CLR 12/M08 A3045 RMK AO2 SLP333 T01221078 58036

Closest aviation forecast (TAF) to El Dorado Substation Heliport

Closest forecast is Henderson Executive Airport, 12.3 nm (22.8 km) NNW.

2023/01/26 18:24 (retrieved 3 hours ago)

TAF KHND 261721Z 2618/2718 03015G21KT P6SM SKC FM270100 04006KT P6SM SKC FM270500 20005KT P6SM SKC